sensor_id;sensor_type;location;lat;lon;timestamp;temperature;humidity
55083;DHT22;40978;52.850;6.506;2023-05-16T00:00:23;8.60;99.90
55083;DHT22;40978;52.850;6.506;2023-05-16T00:02:52;8.60;99.90
55083;DHT22;40978;52.850;6.506;2023-05-16T00:05:18;8.50;99.90
55083;DHT22;40978;52.850;6.506;2023-05-16T00:07:44;8.50;99.90
55083;DHT22;40978;52.850;6.506;2023-05-16T00:10:10;8.50;99.90
55083;DHT22;40978;52.850;6.506;2023-05-16T00:12:37;8.50;99.90
55083;DHT22;40978;52.850;6.506;2023-05-16T00:15:05;8.40;99.90
55083;DHT22;40978;52.850;6.506;2023-05-16T00:17:33;8.40;99.90
55083;DHT22;40978;52.850;6.506;2023-05-16T00:20:00;8.40;99.90
55083;DHT22;40978;52.850;6.506;2023-05-16T00:22:26;8.40;99.90
55083;DHT22;40978;52.850;6.506;2023-05-16T00:24:52;8.40;99.90
55083;DHT22;40978;52.850;6.506;2023-05-16T00:27:18;8.40;99.90
55083;DHT22;40978;52.850;6.506;2023-05-16T00:29:44;8.40;99.90
55083;DHT22;40978;52.850;6.506;2023-05-16T00:32:10;8.40;99.90
55083;DHT22;40978;52.850;6.506;2023-05-16T00:34:35;8.30;99.90
55083;DHT22;40978;52.850;6.506;2023-05-16T00:37:01;8.30;99.90
55083;DHT22;40978;52.850;6.506;2023-05-16T00:39:27;8.30;99.90
55083;DHT22;40978;52.850;6.506;2023-05-16T00:41:53;8.30;99.90
55083;DHT22;40978;52.850;6.506;2023-05-16T00:44:19;8.20;99.90
55083;DHT22;40978;52.850;6.506;2023-05-16T00:46:45;8.20;99.90
55083;DHT22;40978;52.850;6.506;2023-05-16T00:49:10;8.20;99.90
55083;DHT22;40978;52.850;6.506;2023-05-16T00:51:37;8.10;99.90
55083;DHT22;40978;52.850;6.506;2023-05-16T00:54:04;8.10;99.90
55083;DHT22;40978;52.850;6.506;2023-05-16T00:56:31;8.10;99.90
55083;DHT22;40978;52.850;6.506;2023-05-16T00:58:56;8.00;99.90
55083;DHT22;40978;52.850;6.506;2023-05-16T01:01:25;8.00;99.90
55083;DHT22;40978;52.850;6.506;2023-05-16T01:03:52;8.00;99.90
55083;DHT22;40978;52.850;6.506;2023-05-16T01:06:18;7.90;99.90
55083;DHT22;40978;52.850;6.506;2023-05-16T01:08:43;7.90;99.90
55083;DHT22;40978;52.850;6.506;2023-05-16T01:11:31;7.90;99.90
55083;DHT22;40978;52.850;6.506;2023-05-16T01:14:36;7.90;99.90
55083;DHT22;40978;52.850;6.506;2023-05-16T01:17:31;7.90;99.90
55083;DHT22;40978;52.850;6.506;2023-05-16T01:20:12;7.80;99.90
55083;DHT22;40978;52.850;6.506;2023-05-16T01:22:49;7.80;99.90
55083;DHT22;40978;52.850;6.506;2023-05-16T01:25:26;7.80;99.90
55083;DHT22;40978;52.850;6.506;2023-05-16T01:27:56;7.80;99.90
55083;DHT22;40978;52.850;6.506;2023-05-16T01:30:23;7.70;99.90
55083;DHT22;40978;52.850;6.506;2023-05-16T01:32:49;7.70;99.90
55083;DHT22;40978;52.850;6.506;2023-05-16T01:35:16;7.70;99.90
55083;DHT22;40978;52.850;6.506;2023-05-16T01:43:00;7.60;99.90
55083;DHT22;40978;52.850;6.506;2023-05-16T01:45:31;7.50;99.90
55083;DHT22;40978;52.850;6.506;2023-05-16T01:48:05;7.50;99.90
55083;DHT22;40978;52.850;6.506;2023-05-16T01:50:33;7.50;99.90
55083;DHT22;40978;52.850;6.506;2023-05-16T01:53:07;7.50;99.90
55083;DHT22;40978;52.850;6.506;2023-05-16T01:58:04;7.50;99.90
55083;DHT22;40978;52.850;6.506;2023-05-16T02:00:32;7.50;99.90
55083;DHT22;40978;52.850;6.506;2023-05-16T02:02:58;7.40;99.90
55083;DHT22;40978;52.850;6.506;2023-05-16T02:05:24;7.40;99.90
55083;DHT22;40978;52.850;6.506;2023-05-16T02:07:49;7.40;99.90
55083;DHT22;40978;52.850;6.506;2023-05-16T02:10:15;7.30;99.90
55083;DHT22;40978;52.850;6.506;2023-05-16T02:12:41;7.30;99.90
55083;DHT22;40978;52.850;6.506;2023-05-16T02:15:07;7.30;99.90
55083;DHT22;40978;52.850;6.506;2023-05-16T02:17:34;7.20;99.90
55083;DHT22;40978;52.850;6.506;2023-05-16T02:20:00;7.20;99.90
55083;DHT22;40978;52.850;6.506;2023-05-16T02:22:31;7.20;99.90
55083;DHT22;40978;52.850;6.506;2023-05-16T02:24:58;7.10;99.90
55083;DHT22;40978;52.850;6.506;2023-05-16T02:27:24;7.10;99.90
55083;DHT22;40978;52.850;6.506;2023-05-16T02:29:50;7.10;99.90
55083;DHT22;40978;52.850;6.506;2023-05-16T02:32:16;7.00;99.90
55083;DHT22;40978;52.850;6.506;2023-05-16T02:34:42;7.00;99.90
55083;DHT22;40978;52.850;6.506;2023-05-16T02:37:07;7.00;99.90
55083;DHT22;40978;52.850;6.506;2023-05-16T02:39:33;7.00;99.90
55083;DHT22;40978;52.850;6.506;2023-05-16T02:42:00;6.90;99.90
55083;DHT22;40978;52.850;6.506;2023-05-16T02:44:26;6.90;99.90
55083;DHT22;40978;52.850;6.506;2023-05-16T02:46:51;6.90;99.90
55083;DHT22;40978;52.850;6.506;2023-05-16T02:49:17;6.80;99.90
55083;DHT22;40978;52.850;6.506;2023-05-16T02:51:43;6.80;99.90
55083;DHT22;40978;52.850;6.506;2023-05-16T02:54:08;6.70;99.90
55083;DHT22;40978;52.850;6.506;2023-05-16T02:56:34;6.70;99.90
55083;DHT22;40978;52.850;6.506;2023-05-16T02:59:00;6.70;99.90
55083;DHT22;40978;52.850;6.506;2023-05-16T03:01:26;6.60;99.90
55083;DHT22;40978;52.850;6.506;2023-05-16T03:03:52;6.60;99.90
55083;DHT22;40978;52.850;6.506;2023-05-16T03:06:17;6.50;99.90
55083;DHT22;40978;52.850;6.506;2023-05-16T03:08:43;6.50;99.90
55083;DHT22;40978;52.850;6.506;2023-05-16T03:11:09;6.40;99.90
55083;DHT22;40978;52.850;6.506;2023-05-16T03:13:35;6.40;99.90
55083;DHT22;40978;52.850;6.506;2023-05-16T03:16:00;6.40;99.90
55083;DHT22;40978;52.850;6.506;2023-05-16T03:18:26;6.30;99.90
55083;DHT22;40978;52.850;6.506;2023-05-16T03:20:52;6.30;99.90
55083;DHT22;40978;52.850;6.506;2023-05-16T03:23:21;6.30;99.90
55083;DHT22;40978;52.850;6.506;2023-05-16T03:25:47;6.30;99.90
55083;DHT22;40978;52.850;6.506;2023-05-16T03:28:12;6.20;99.90
55083;DHT22;40978;52.850;6.506;2023-05-16T03:30:38;6.20;99.90
55083;DHT22;40978;52.850;6.506;2023-05-16T03:33:04;6.20;99.90
55083;DHT22;40978;52.850;6.506;2023-05-16T03:35:31;6.20;99.90
55083;DHT22;40978;52.850;6.506;2023-05-16T03:37:57;6.10;99.90
55083;DHT22;40978;52.850;6.506;2023-05-16T03:40:23;6.10;99.90
55083;DHT22;40978;52.850;6.506;2023-05-16T03:42:49;6.10;99.90
55083;DHT22;40978;52.850;6.506;2023-05-16T03:45:15;6.10;99.90
55083;DHT22;40978;52.850;6.506;2023-05-16T03:47:40;6.10;99.90
55083;DHT22;40978;52.850;6.506;2023-05-16T03:50:07;6.10;99.90
55083;DHT22;40978;52.850;6.506;2023-05-16T03:52:34;6.10;99.90
55083;DHT22;40978;52.850;6.506;2023-05-16T03:55:00;6.10;99.90
55083;DHT22;40978;52.850;6.506;2023-05-16T03:57:30;6.10;99.90
55083;DHT22;40978;52.850;6.506;2023-05-16T03:59:56;6.10;99.90
55083;DHT22;40978;52.850;6.506;2023-05-16T04:02:22;6.20;99.90
55083;DHT22;40978;52.850;6.506;2023-05-16T04:04:48;6.20;99.90
55083;DHT22;40978;52.850;6.506;2023-05-16T04:07:14;6.20;99.90
55083;DHT22;40978;52.850;6.506;2023-05-16T04:09:39;6.20;99.90
55083;DHT22;40978;52.850;6.506;2023-05-16T04:12:06;6.20;99.90
55083;DHT22;40978;52.850;6.506;2023-05-16T04:14:32;6.20;99.90
55083;DHT22;40978;52.850;6.506;2023-05-16T04:16:58;6.30;99.90
55083;DHT22;40978;52.850;6.506;2023-05-16T04:19:24;6.30;99.90
55083;DHT22;40978;52.850;6.506;2023-05-16T04:21:50;6.30;99.90
55083;DHT22;40978;52.850;6.506;2023-05-16T04:24:17;6.30;99.90
55083;DHT22;40978;52.850;6.506;2023-05-16T04:26:43;6.30;99.90
55083;DHT22;40978;52.850;6.506;2023-05-16T04:29:09;6.30;99.90
55083;DHT22;40978;52.850;6.506;2023-05-16T04:31:36;6.40;99.90
55083;DHT22;40978;52.850;6.506;2023-05-16T04:34:02;6.40;99.90
55083;DHT22;40978;52.850;6.506;2023-05-16T04:36:28;6.40;99.90
55083;DHT22;40978;52.850;6.506;2023-05-16T04:38:55;6.50;99.90
55083;DHT22;40978;52.850;6.506;2023-05-16T04:41:21;6.50;99.90
55083;DHT22;40978;52.850;6.506;2023-05-16T04:43:48;6.60;99.90
55083;DHT22;40978;52.850;6.506;2023-05-16T04:46:14;6.70;99.90
55083;DHT22;40978;52.850;6.506;2023-05-16T04:48:40;6.70;99.90
55083;DHT22;40978;52.850;6.506;2023-05-16T04:51:06;6.90;99.90
55083;DHT22;40978;52.850;6.506;2023-05-16T04:53:32;6.90;99.90
55083;DHT22;40978;52.850;6.506;2023-05-16T04:55:58;7.10;99.90
55083;DHT22;40978;52.850;6.506;2023-05-16T04:58:24;7.20;99.90
55083;DHT22;40978;52.850;6.506;2023-05-16T05:00:50;7.40;99.90
55083;DHT22;40978;52.850;6.506;2023-05-16T05:03:17;7.60;99.90
55083;DHT22;40978;52.850;6.506;2023-05-16T05:05:43;7.90;99.90
55083;DHT22;40978;52.850;6.506;2023-05-16T05:08:10;8.20;99.90
55083;DHT22;40978;52.850;6.506;2023-05-16T05:10:35;8.50;99.90
55083;DHT22;40978;52.850;6.506;2023-05-16T05:13:01;8.90;99.90
55083;DHT22;40978;52.850;6.506;2023-05-16T05:15:27;8.90;99.90
55083;DHT22;40978;52.850;6.506;2023-05-16T05:17:53;9.00;99.90
55083;DHT22;40978;52.850;6.506;2023-05-16T05:20:18;9.00;99.90
55083;DHT22;40978;52.850;6.506;2023-05-16T05:22:44;8.90;99.90
55083;DHT22;40978;52.850;6.506;2023-05-16T05:25:10;8.90;99.90
55083;DHT22;40978;52.850;6.506;2023-05-16T05:27:36;8.90;99.90
55083;DHT22;40978;52.850;6.506;2023-05-16T05:30:02;9.10;99.90
55083;DHT22;40978;52.850;6.506;2023-05-16T05:32:28;9.10;99.90
55083;DHT22;40978;52.850;6.506;2023-05-16T05:34:53;9.10;99.90
55083;DHT22;40978;52.850;6.506;2023-05-16T05:37:19;9.20;99.90
55083;DHT22;40978;52.850;6.506;2023-05-16T05:39:45;9.20;99.90
55083;DHT22;40978;52.850;6.506;2023-05-16T05:42:11;9.20;99.90
55083;DHT22;40978;52.850;6.506;2023-05-16T05:44:37;9.30;99.90
55083;DHT22;40978;52.850;6.506;2023-05-16T05:47:06;9.30;99.90
55083;DHT22;40978;52.850;6.506;2023-05-16T05:49:32;9.50;99.90
55083;DHT22;40978;52.850;6.506;2023-05-16T05:51:58;9.60;99.90
55083;DHT22;40978;52.850;6.506;2023-05-16T05:54:24;9.70;99.90
55083;DHT22;40978;52.850;6.506;2023-05-16T05:56:50;9.90;99.90
55083;DHT22;40978;52.850;6.506;2023-05-16T05:59:16;9.90;99.90
55083;DHT22;40978;52.850;6.506;2023-05-16T06:01:44;10.00;99.90
55083;DHT22;40978;52.850;6.506;2023-05-16T06:04:10;10.10;99.90
55083;DHT22;40978;52.850;6.506;2023-05-16T06:06:36;10.20;99.90
55083;DHT22;40978;52.850;6.506;2023-05-16T06:09:02;10.20;99.90
55083;DHT22;40978;52.850;6.506;2023-05-16T06:11:28;10.30;99.90
55083;DHT22;40978;52.850;6.506;2023-05-16T06:13:54;10.30;99.90
55083;DHT22;40978;52.850;6.506;2023-05-16T06:16:24;10.30;99.90
55083;DHT22;40978;52.850;6.506;2023-05-16T06:18:50;10.40;99.90
55083;DHT22;40978;52.850;6.506;2023-05-16T06:21:15;10.60;99.90
55083;DHT22;40978;52.850;6.506;2023-05-16T06:23:41;10.70;99.90
55083;DHT22;40978;52.850;6.506;2023-05-16T06:26:07;10.70;99.90
55083;DHT22;40978;52.850;6.506;2023-05-16T06:28:32;10.80;99.90
55083;DHT22;40978;52.850;6.506;2023-05-16T06:30:59;10.80;99.90
55083;DHT22;40978;52.850;6.506;2023-05-16T06:33:24;10.90;99.90
55083;DHT22;40978;52.850;6.506;2023-05-16T06:35:51;11.00;99.90
55083;DHT22;40978;52.850;6.506;2023-05-16T06:38:17;11.10;99.90
55083;DHT22;40978;52.850;6.506;2023-05-16T06:40:46;11.20;99.90
55083;DHT22;40978;52.850;6.506;2023-05-16T06:43:12;11.40;99.90
55083;DHT22;40978;52.850;6.506;2023-05-16T06:45:38;11.40;99.90
55083;DHT22;40978;52.850;6.506;2023-05-16T06:48:05;11.40;99.90
55083;DHT22;40978;52.850;6.506;2023-05-16T06:50:31;11.50;99.90
55083;DHT22;40978;52.850;6.506;2023-05-16T06:52:57;11.40;99.90
55083;DHT22;40978;52.850;6.506;2023-05-16T06:55:23;11.50;99.90
55083;DHT22;40978;52.850;6.506;2023-05-16T06:57:49;11.30;99.90
55083;DHT22;40978;52.850;6.506;2023-05-16T07:00:15;11.20;99.90
55083;DHT22;40978;52.850;6.506;2023-05-16T07:02:41;11.00;99.90
55083;DHT22;40978;52.850;6.506;2023-05-16T07:05:07;10.90;99.90
55083;DHT22;40978;52.850;6.506;2023-05-16T07:07:32;10.70;99.90
55083;DHT22;40978;52.850;6.506;2023-05-16T07:09:58;10.60;99.90
55083;DHT22;40978;52.850;6.506;2023-05-16T07:12:24;10.60;99.90
55083;DHT22;40978;52.850;6.506;2023-05-16T07:14:51;10.80;99.90
55083;DHT22;40978;52.850;6.506;2023-05-16T07:17:16;11.00;99.90
55083;DHT22;40978;52.850;6.506;2023-05-16T07:19:42;11.20;99.90
55083;DHT22;40978;52.850;6.506;2023-05-16T07:22:08;11.40;99.90
55083;DHT22;40978;52.850;6.506;2023-05-16T07:24:33;11.60;99.90
55083;DHT22;40978;52.850;6.506;2023-05-16T07:27:00;11.80;99.90
55083;DHT22;40978;52.850;6.506;2023-05-16T07:29:26;12.00;99.90
55083;DHT22;40978;52.850;6.506;2023-05-16T07:31:52;12.20;99.90
55083;DHT22;40978;52.850;6.506;2023-05-16T07:34:17;12.20;99.90
55083;DHT22;40978;52.850;6.506;2023-05-16T07:36:43;12.40;99.90
55083;DHT22;40978;52.850;6.506;2023-05-16T07:39:09;12.50;99.90
55083;DHT22;40978;52.850;6.506;2023-05-16T07:41:35;12.60;99.90
55083;DHT22;40978;52.850;6.506;2023-05-16T07:44:00;12.70;99.90
55083;DHT22;40978;52.850;6.506;2023-05-16T07:46:26;13.00;99.90
55083;DHT22;40978;52.850;6.506;2023-05-16T07:48:52;13.00;99.90
55083;DHT22;40978;52.850;6.506;2023-05-16T07:51:17;12.80;99.90
55083;DHT22;40978;52.850;6.506;2023-05-16T07:53:43;12.80;99.90
55083;DHT22;40978;52.850;6.506;2023-05-16T07:56:09;12.50;99.90
55083;DHT22;40978;52.850;6.506;2023-05-16T07:58:35;12.30;99.90
55083;DHT22;40978;52.850;6.506;2023-05-16T08:01:01;12.40;99.90
55083;DHT22;40978;52.850;6.506;2023-05-16T08:03:26;12.60;99.90
55083;DHT22;40978;52.850;6.506;2023-05-16T08:05:52;12.80;99.90
55083;DHT22;40978;52.850;6.506;2023-05-16T08:08:18;13.00;99.90
55083;DHT22;40978;52.850;6.506;2023-05-16T08:10:43;13.10;99.90
55083;DHT22;40978;52.850;6.506;2023-05-16T08:13:09;13.30;99.90
55083;DHT22;40978;52.850;6.506;2023-05-16T08:15:35;13.60;99.90
55083;DHT22;40978;52.850;6.506;2023-05-16T08:18:01;13.40;99.90
55083;DHT22;40978;52.850;6.506;2023-05-16T08:20:27;13.30;99.90
55083;DHT22;40978;52.850;6.506;2023-05-16T08:22:53;13.30;99.90
55083;DHT22;40978;52.850;6.506;2023-05-16T08:25:20;13.80;99.90
55083;DHT22;40978;52.850;6.506;2023-05-16T08:27:47;14.30;99.90
55083;DHT22;40978;52.850;6.506;2023-05-16T08:30:13;15.00;99.90
55083;DHT22;40978;52.850;6.506;2023-05-16T08:32:39;15.50;99.90
55083;DHT22;40978;52.850;6.506;2023-05-16T08:35:05;15.60;99.90
55083;DHT22;40978;52.850;6.506;2023-05-16T08:37:31;15.60;99.90
55083;DHT22;40978;52.850;6.506;2023-05-16T08:39:58;15.70;99.60
55083;DHT22;40978;52.850;6.506;2023-05-16T08:42:23;15.90;99.90
55083;DHT22;40978;52.850;6.506;2023-05-16T08:44:49;15.50;98.80
55083;DHT22;40978;52.850;6.506;2023-05-16T08:47:19;15.10;96.10
55083;DHT22;40978;52.850;6.506;2023-05-16T08:49:47;14.40;99.30
55083;DHT22;40978;52.850;6.506;2023-05-16T08:52:13;13.60;99.90
55083;DHT22;40978;52.850;6.506;2023-05-16T08:54:42;13.10;99.90
55083;DHT22;40978;52.850;6.506;2023-05-16T08:57:08;12.70;99.90
55083;DHT22;40978;52.850;6.506;2023-05-16T08:59:34;12.80;99.90
55083;DHT22;40978;52.850;6.506;2023-05-16T09:02:00;13.50;99.90
55083;DHT22;40978;52.850;6.506;2023-05-16T09:04:26;14.10;99.90
55083;DHT22;40978;52.850;6.506;2023-05-16T09:06:52;14.70;99.90
55083;DHT22;40978;52.850;6.506;2023-05-16T09:09:17;15.20;99.90
55083;DHT22;40978;52.850;6.506;2023-05-16T09:11:44;15.50;99.90
55083;DHT22;40978;52.850;6.506;2023-05-16T09:14:10;15.40;99.90
55083;DHT22;40978;52.850;6.506;2023-05-16T09:16:36;14.70;99.90
55083;DHT22;40978;52.850;6.506;2023-05-16T09:19:01;14.40;99.90
55083;DHT22;40978;52.850;6.506;2023-05-16T09:21:30;14.60;99.90
55083;DHT22;40978;52.850;6.506;2023-05-16T09:24:06;15.20;99.90
55083;DHT22;40978;52.850;6.506;2023-05-16T09:26:33;15.50;99.90
55083;DHT22;40978;52.850;6.506;2023-05-16T09:28:59;15.80;99.90
55083;DHT22;40978;52.850;6.506;2023-05-16T09:31:27;16.00;99.90
55083;DHT22;40978;52.850;6.506;2023-05-16T09:33:56;16.10;99.00
55083;DHT22;40978;52.850;6.506;2023-05-16T09:36:22;16.20;99.00
55083;DHT22;40978;52.850;6.506;2023-05-16T09:38:50;16.30;96.60
55083;DHT22;40978;52.850;6.506;2023-05-16T09:41:16;16.60;95.80
55083;DHT22;40978;52.850;6.506;2023-05-16T09:43:42;16.40;95.00
55083;DHT22;40978;52.850;6.506;2023-05-16T09:46:12;16.30;94.80
55083;DHT22;40978;52.850;6.506;2023-05-16T09:48:44;16.20;95.00
55083;DHT22;40978;52.850;6.506;2023-05-16T09:51:11;15.60;95.10
55083;DHT22;40978;52.850;6.506;2023-05-16T09:53:37;15.00;93.30
55083;DHT22;40978;52.850;6.506;2023-05-16T09:56:10;15.00;95.40
55083;DHT22;40978;52.850;6.506;2023-05-16T09:58:37;15.50;94.40
55083;DHT22;40978;52.850;6.506;2023-05-16T10:01:04;16.00;93.20
55083;DHT22;40978;52.850;6.506;2023-05-16T10:03:32;16.10;92.80
55083;DHT22;40978;52.850;6.506;2023-05-16T10:05:59;15.90;91.50
55083;DHT22;40978;52.850;6.506;2023-05-16T10:08:25;15.70;92.50
55083;DHT22;40978;52.850;6.506;2023-05-16T10:10:55;15.50;92.60
55083;DHT22;40978;52.850;6.506;2023-05-16T10:13:23;15.20;94.30
55083;DHT22;40978;52.850;6.506;2023-05-16T10:15:50;15.10;95.90
55083;DHT22;40978;52.850;6.506;2023-05-16T10:18:21;15.30;96.60
55083;DHT22;40978;52.850;6.506;2023-05-16T10:20:48;15.50;97.10
55083;DHT22;40978;52.850;6.506;2023-05-16T10:23:18;15.90;96.60
55083;DHT22;40978;52.850;6.506;2023-05-16T10:25:46;16.10;97.10
55083;DHT22;40978;52.850;6.506;2023-05-16T10:28:12;16.30;97.40
55083;DHT22;40978;52.850;6.506;2023-05-16T10:30:40;16.20;95.90
55083;DHT22;40978;52.850;6.506;2023-05-16T10:33:13;16.00;95.80
55083;DHT22;40978;52.850;6.506;2023-05-16T10:35:39;15.90;97.20
55083;DHT22;40978;52.850;6.506;2023-05-16T10:38:06;15.80;95.40
55083;DHT22;40978;52.850;6.506;2023-05-16T10:40:34;16.10;96.20
55083;DHT22;40978;52.850;6.506;2023-05-16T10:43:02;16.00;93.50
55083;DHT22;40978;52.850;6.506;2023-05-16T10:45:29;15.90;93.40
55083;DHT22;40978;52.850;6.506;2023-05-16T10:47:57;16.30;92.90
55083;DHT22;40978;52.850;6.506;2023-05-16T10:50:49;16.60;91.10
55083;DHT22;40978;52.850;6.506;2023-05-16T11:06:31;13.90;98.10
55083;DHT22;40978;52.850;6.506;2023-05-16T11:11:44;14.70;99.90
55083;DHT22;40978;52.850;6.506;2023-05-16T11:17:02;15.40;95.80
55083;DHT22;40978;52.850;6.506;2023-05-16T11:22:12;14.90;95.50
55083;DHT22;40978;52.850;6.506;2023-05-16T11:25:06;15.00;96.60
55083;DHT22;40978;52.850;6.506;2023-05-16T11:27:45;15.60;96.70
55083;DHT22;40978;52.850;6.506;2023-05-16T11:30:16;16.10;97.50
55083;DHT22;40978;52.850;6.506;2023-05-16T11:32:44;16.60;96.90
55083;DHT22;40978;52.850;6.506;2023-05-16T11:35:17;17.00;95.80
55083;DHT22;40978;52.850;6.506;2023-05-16T11:37:46;17.40;95.40
55083;DHT22;40978;52.850;6.506;2023-05-16T11:40:13;17.60;91.40
55083;DHT22;40978;52.850;6.506;2023-05-16T11:42:40;17.40;89.40
55083;DHT22;40978;52.850;6.506;2023-05-16T11:45:07;16.80;86.60
55083;DHT22;40978;52.850;6.506;2023-05-16T11:47:35;16.80;90.00
55083;DHT22;40978;52.850;6.506;2023-05-16T11:50:10;16.90;89.50
55083;DHT22;40978;52.850;6.506;2023-05-16T11:52:37;16.90;88.20
55083;DHT22;40978;52.850;6.506;2023-05-16T11:55:07;16.60;87.50
55083;DHT22;40978;52.850;6.506;2023-05-16T11:57:36;16.10;84.00
55083;DHT22;40978;52.850;6.506;2023-05-16T12:00:24;15.20;91.30
55083;DHT22;40978;52.850;6.506;2023-05-16T12:02:53;14.20;99.70
55083;DHT22;40978;52.850;6.506;2023-05-16T12:05:20;13.50;99.90
55083;DHT22;40978;52.850;6.506;2023-05-16T12:07:50;13.10;99.90
55083;DHT22;40978;52.850;6.506;2023-05-16T12:10:19;12.90;99.90
55083;DHT22;40978;52.850;6.506;2023-05-16T12:12:46;12.80;99.90
55083;DHT22;40978;52.850;6.506;2023-05-16T12:15:13;12.60;99.90
55083;DHT22;40978;52.850;6.506;2023-05-16T12:17:40;12.80;99.90
55083;DHT22;40978;52.850;6.506;2023-05-16T12:20:09;13.50;99.90
55083;DHT22;40978;52.850;6.506;2023-05-16T12:22:42;14.00;99.90
55083;DHT22;40978;52.850;6.506;2023-05-16T12:25:30;14.50;99.90
55083;DHT22;40978;52.850;6.506;2023-05-16T12:27:59;15.20;99.90
55083;DHT22;40978;52.850;6.506;2023-05-16T12:30:26;15.50;99.90
55083;DHT22;40978;52.850;6.506;2023-05-16T12:33:08;15.70;99.90
55083;DHT22;40978;52.850;6.506;2023-05-16T12:35:37;15.80;99.90
55083;DHT22;40978;52.850;6.506;2023-05-16T12:38:04;16.30;99.90
55083;DHT22;40978;52.850;6.506;2023-05-16T12:40:32;16.40;99.90
55083;DHT22;40978;52.850;6.506;2023-05-16T12:42:57;16.10;98.00
55083;DHT22;40978;52.850;6.506;2023-05-16T12:45:25;15.70;98.50
55083;DHT22;40978;52.850;6.506;2023-05-16T12:47:52;15.20;99.60
55083;DHT22;40978;52.850;6.506;2023-05-16T12:50:18;14.80;99.90
55083;DHT22;40978;52.850;6.506;2023-05-16T12:55:14;15.20;99.90
55083;DHT22;40978;52.850;6.506;2023-05-16T12:57:44;15.50;99.00
55083;DHT22;40978;52.850;6.506;2023-05-16T13:00:12;15.20;97.20
55083;DHT22;40978;52.850;6.506;2023-05-16T13:02:39;15.10;97.40
55083;DHT22;40978;52.850;6.506;2023-05-16T13:05:05;14.80;96.00
55083;DHT22;40978;52.850;6.506;2023-05-16T13:07:35;14.50;96.10
55083;DHT22;40978;52.850;6.506;2023-05-16T13:10:01;14.70;97.20
55083;DHT22;40978;52.850;6.506;2023-05-16T13:12:28;14.70;96.80
55083;DHT22;40978;52.850;6.506;2023-05-16T13:14:54;14.70;97.00
55083;DHT22;40978;52.850;6.506;2023-05-16T13:17:20;14.60;97.40
55083;DHT22;40978;52.850;6.506;2023-05-16T13:19:45;14.50;98.10
55083;DHT22;40978;52.850;6.506;2023-05-16T13:22:11;14.40;97.60
55083;DHT22;40978;52.850;6.506;2023-05-16T13:24:37;14.20;97.30
55083;DHT22;40978;52.850;6.506;2023-05-16T13:27:03;14.00;97.30
55083;DHT22;40978;52.850;6.506;2023-05-16T13:29:29;13.90;97.60
55083;DHT22;40978;52.850;6.506;2023-05-16T13:31:55;13.80;97.70
55083;DHT22;40978;52.850;6.506;2023-05-16T13:34:20;13.80;97.00
55083;DHT22;40978;52.850;6.506;2023-05-16T13:36:46;13.80;97.30
55083;DHT22;40978;52.850;6.506;2023-05-16T13:39:13;13.80;96.90
55083;DHT22;40978;52.850;6.506;2023-05-16T13:41:39;13.90;97.20
55083;DHT22;40978;52.850;6.506;2023-05-16T13:44:07;14.10;97.40
55083;DHT22;40978;52.850;6.506;2023-05-16T13:46:33;14.20;97.50
55083;DHT22;40978;52.850;6.506;2023-05-16T13:48:58;14.00;97.50
55083;DHT22;40978;52.850;6.506;2023-05-16T13:51:24;14.00;97.90
55083;DHT22;40978;52.850;6.506;2023-05-16T13:53:50;14.00;98.10
55083;DHT22;40978;52.850;6.506;2023-05-16T13:56:16;14.00;98.00
55083;DHT22;40978;52.850;6.506;2023-05-16T13:58:42;14.00;98.10
55083;DHT22;40978;52.850;6.506;2023-05-16T14:01:08;14.00;97.80
55083;DHT22;40978;52.850;6.506;2023-05-16T14:03:34;14.00;98.20
55083;DHT22;40978;52.850;6.506;2023-05-16T14:06:01;13.90;98.50
55083;DHT22;40978;52.850;6.506;2023-05-16T14:08:27;13.90;98.20
55083;DHT22;40978;52.850;6.506;2023-05-16T14:10:53;13.80;98.10
55083;DHT22;40978;52.850;6.506;2023-05-16T14:13:19;13.80;98.20
55083;DHT22;40978;52.850;6.506;2023-05-16T14:15:45;13.80;98.50
55083;DHT22;40978;52.850;6.506;2023-05-16T14:18:11;13.80;99.00
55083;DHT22;40978;52.850;6.506;2023-05-16T14:20:38;14.00;99.10
55083;DHT22;40978;52.850;6.506;2023-05-16T14:23:04;14.00;98.20
55083;DHT22;40978;52.850;6.506;2023-05-16T14:25:30;13.90;98.10
55083;DHT22;40978;52.850;6.506;2023-05-16T14:27:56;13.70;98.20
55083;DHT22;40978;52.850;6.506;2023-05-16T14:30:22;13.60;99.10
55083;DHT22;40978;52.850;6.506;2023-05-16T14:32:48;13.40;99.90
55083;DHT22;40978;52.850;6.506;2023-05-16T14:35:13;13.40;99.90
55083;DHT22;40978;52.850;6.506;2023-05-16T14:37:39;13.60;99.90
55083;DHT22;40978;52.850;6.506;2023-05-16T14:40:06;13.80;99.90
55083;DHT22;40978;52.850;6.506;2023-05-16T14:42:33;14.10;99.90
55083;DHT22;40978;52.850;6.506;2023-05-16T14:44:59;13.90;99.90
55083;DHT22;40978;52.850;6.506;2023-05-16T14:47:25;13.70;99.90
55083;DHT22;40978;52.850;6.506;2023-05-16T14:49:53;13.40;99.90
55083;DHT22;40978;52.850;6.506;2023-05-16T14:52:19;13.10;99.90
55083;DHT22;40978;52.850;6.506;2023-05-16T14:54:45;13.00;99.90
55083;DHT22;40978;52.850;6.506;2023-05-16T14:57:10;12.80;99.90
55083;DHT22;40978;52.850;6.506;2023-05-16T14:59:36;12.70;99.90
55083;DHT22;40978;52.850;6.506;2023-05-16T15:02:02;12.60;99.90
55083;DHT22;40978;52.850;6.506;2023-05-16T15:04:28;12.50;99.90
55083;DHT22;40978;52.850;6.506;2023-05-16T15:06:54;12.40;99.90
55083;DHT22;40978;52.850;6.506;2023-05-16T15:09:20;12.40;99.90
55083;DHT22;40978;52.850;6.506;2023-05-16T15:11:46;12.40;99.90
55083;DHT22;40978;52.850;6.506;2023-05-16T15:14:12;12.40;99.90
55083;DHT22;40978;52.850;6.506;2023-05-16T15:16:38;12.30;99.90
55083;DHT22;40978;52.850;6.506;2023-05-16T15:19:03;12.30;99.90
55083;DHT22;40978;52.850;6.506;2023-05-16T15:21:29;12.30;99.90
55083;DHT22;40978;52.850;6.506;2023-05-16T15:23:57;12.20;99.90
55083;DHT22;40978;52.850;6.506;2023-05-16T15:26:22;12.20;99.90
55083;DHT22;40978;52.850;6.506;2023-05-16T15:28:49;12.20;99.90
55083;DHT22;40978;52.850;6.506;2023-05-16T15:31:15;12.20;99.90
55083;DHT22;40978;52.850;6.506;2023-05-16T15:33:41;12.30;99.90
55083;DHT22;40978;52.850;6.506;2023-05-16T15:36:07;12.30;99.90
55083;DHT22;40978;52.850;6.506;2023-05-16T15:38:32;12.30;99.90
55083;DHT22;40978;52.850;6.506;2023-05-16T15:40:59;12.30;99.90
55083;DHT22;40978;52.850;6.506;2023-05-16T15:43:25;12.30;99.90
55083;DHT22;40978;52.850;6.506;2023-05-16T15:45:51;12.30;99.90
55083;DHT22;40978;52.850;6.506;2023-05-16T15:48:16;12.30;99.90
55083;DHT22;40978;52.850;6.506;2023-05-16T15:50:42;12.30;99.90
55083;DHT22;40978;52.850;6.506;2023-05-16T15:53:08;12.30;99.90
55083;DHT22;40978;52.850;6.506;2023-05-16T15:55:34;12.30;99.90
55083;DHT22;40978;52.850;6.506;2023-05-16T15:57:59;12.40;99.90
55083;DHT22;40978;52.850;6.506;2023-05-16T16:00:25;12.40;99.90
55083;DHT22;40978;52.850;6.506;2023-05-16T16:02:51;12.40;99.90
55083;DHT22;40978;52.850;6.506;2023-05-16T16:05:17;12.40;99.90
55083;DHT22;40978;52.850;6.506;2023-05-16T16:07:42;12.40;99.90